createdAt,value
2023-04-18T00:02:25.000Z,16.79
2023-04-18T00:07:25.000Z,17.47
2023-04-18T00:12:26.000Z,18.36
2023-04-18T00:17:25.000Z,19.14
2023-04-18T00:22:26.000Z,20.84
2023-04-18T00:27:25.000Z,23.11
2023-04-18T00:32:25.000Z,24.41
2023-04-18T00:37:25.000Z,24.64
2023-04-18T00:42:26.000Z,25.03
2023-04-18T00:47:25.000Z,23.47
2023-04-18T00:52:25.000Z,22.79
2023-04-18T00:57:26.000Z,19.89
2023-04-18T01:02:25.000Z,16.33
2023-04-18T01:07:26.000Z,17.21
2023-04-18T01:12:25.000Z,19.04
2023-04-18T01:17:25.000Z,20.89
2023-04-18T01:22:24.000Z,21.79
2023-04-18T01:27:25.000Z,20.9
2023-04-18T01:32:25.000Z,19.04
2023-04-18T01:37:25.000Z,18.11
2023-04-18T01:42:25.000Z,17.21
2023-04-18T01:47:25.000Z,17.31
2023-04-18T01:52:25.000Z,17.87
2023-04-18T01:57:25.000Z,21.97
2023-04-18T02:02:25.000Z,23.64
2023-04-18T02:07:25.000Z,23.98
2023-04-18T02:12:25.000Z,24.66
2023-04-18T02:17:25.000Z,22.98
2023-04-18T02:22:25.000Z,22.13
2023-04-18T02:27:25.000Z,21.69
2023-04-18T02:32:25.000Z,22.18
2023-04-18T02:37:25.000Z,23.43
2023-04-18T02:42:25.000Z,22.66
2023-04-18T02:47:25.000Z,21.04
2023-04-18T02:52:25.000Z,20.23
2023-04-18T02:57:24.000Z,19.05
2023-04-18T03:02:26.000Z,15.57
2023-04-18T03:07:25.000Z,16.69
2023-04-18T03:12:25.000Z,14.68
2023-04-18T03:17:26.000Z,14.91
2023-04-18T03:22:24.000Z,15.3
2023-04-18T03:27:25.000Z,15.48
2023-04-18T03:32:25.000Z,17.67
2023-04-18T03:37:25.000Z,16.22
2023-04-18T03:42:25.000Z,13.87
2023-04-18T03:47:25.000Z,14.89
2023-04-18T03:52:26.000Z,14.58
2023-04-18T03:57:25.000Z,15.07
2023-04-18T04:02:25.000Z,15.93
2023-04-18T04:07:25.000Z,14.49
2023-04-18T04:12:25.000Z,13.84
2023-04-18T04:17:25.000Z,13.43
2023-04-18T04:22:25.000Z,14.47
2023-04-18T04:27:26.000Z,12.86
2023-04-18T04:32:25.000Z,12.69
2023-04-18T04:37:25.000Z,13.37
2023-04-18T04:42:25.000Z,14.66
2023-04-18T04:47:25.000Z,15
2023-04-18T04:52:25.000Z,14.75
2023-04-18T04:57:25.000Z,14.86
2023-04-18T05:02:25.000Z,14.65
2023-04-18T05:07:25.000Z,16.74
2023-04-18T05:12:25.000Z,16.81
2023-04-18T05:17:24.000Z,19.32
2023-04-18T05:22:25.000Z,19.55
2023-04-18T05:27:25.000Z,16.2
2023-04-18T05:32:25.000Z,16.05
2023-04-18T05:37:25.000Z,14.19
2023-04-18T05:42:25.000Z,14.86
2023-04-18T05:47:25.000Z,14.8
2023-04-18T05:52:25.000Z,14.81
2023-04-18T05:57:25.000Z,15.09
2023-04-18T06:02:26.000Z,15.75
2023-04-18T06:07:25.000Z,15.15
2023-04-18T06:12:25.000Z,15.44
2023-04-18T06:17:25.000Z,14.94
2023-04-18T06:22:25.000Z,15.11
2023-04-18T06:27:25.000Z,14.8
2023-04-18T06:32:25.000Z,15.29
2023-04-18T06:37:25.000Z,15.99
2023-04-18T06:42:25.000Z,15.33
2023-04-18T06:47:24.000Z,14.82
2023-04-18T06:52:25.000Z,14.95
2023-04-18T06:57:25.000Z,14.76
2023-04-18T07:02:25.000Z,15.64
2023-04-18T07:07:25.000Z,15.95
2023-04-18T07:12:24.000Z,17.11
2023-04-18T07:17:25.000Z,16.89
2023-04-18T07:22:25.000Z,16.33
2023-04-18T07:27:25.000Z,15.72
2023-04-18T07:32:25.000Z,16.21
2023-04-18T07:37:25.000Z,16.37
2023-04-18T07:42:25.000Z,16.42
2023-04-18T07:47:26.000Z,14.1
2023-04-18T07:52:25.000Z,12.46
2023-04-18T07:57:25.000Z,9.72
2023-04-18T08:02:25.000Z,11.53
2023-04-18T08:07:25.000Z,10.79
2023-04-18T08:12:26.000Z,11.65
2023-04-18T08:17:25.000Z,12.36
2023-04-18T08:22:25.000Z,12.38
2023-04-18T08:27:25.000Z,12.15
2023-04-18T08:32:25.000Z,11.38
2023-04-18T08:37:25.000Z,12.02
2023-04-18T08:42:25.000Z,12.31
2023-04-18T08:47:25.000Z,11.83
2023-04-18T08:52:25.000Z,11.42
2023-04-18T08:57:26.000Z,11.84
2023-04-18T09:02:25.000Z,11.95
2023-04-18T09:07:26.000Z,11.66
2023-04-18T09:12:24.000Z,11.81
2023-04-18T09:17:26.000Z,12.37
2023-04-18T09:22:25.000Z,12.58
2023-04-18T09:27:25.000Z,10.94
2023-04-18T09:32:25.000Z,11.41
2023-04-18T09:37:25.000Z,11.72
2023-04-18T09:42:25.000Z,11.32
2023-04-18T09:47:26.000Z,11.12
2023-04-18T09:52:25.000Z,11.43
2023-04-18T09:57:25.000Z,12.21
2023-04-18T10:02:25.000Z,11.98
2023-04-18T10:07:25.000Z,11.93
2023-04-18T10:12:26.000Z,12.11
2023-04-18T10:17:25.000Z,12.74
2023-04-18T10:22:25.000Z,13.71
2023-04-18T10:27:25.000Z,12.85
2023-04-18T10:32:25.000Z,13.96
2023-04-18T10:37:25.000Z,12.88
2023-04-18T10:42:25.000Z,12.65
2023-04-18T10:47:25.000Z,12.31
2023-04-18T10:52:25.000Z,12.24
2023-04-18T10:57:25.000Z,11.95
2023-04-18T11:02:25.000Z,11.54
2023-04-18T11:07:26.000Z,11.44
2023-04-18T11:12:25.000Z,11.42
2023-04-18T11:17:25.000Z,12
2023-04-18T11:22:25.000Z,11.96
2023-04-18T11:27:25.000Z,11.17
2023-04-18T11:32:25.000Z,10.94
2023-04-18T11:37:25.000Z,11
2023-04-18T11:42:25.000Z,11.35
2023-04-18T11:47:25.000Z,12.36
2023-04-18T11:52:26.000Z,11.73
2023-04-18T11:57:25.000Z,11.23
2023-04-18T12:02:26.000Z,10.94
2023-04-18T12:07:25.000Z,10.42
2023-04-18T12:12:25.000Z,11
2023-04-18T12:17:25.000Z,10.73
2023-04-18T12:22:25.000Z,10.08
2023-04-18T12:27:26.000Z,10.29
2023-04-18T12:32:25.000Z,10.61
2023-04-18T12:37:25.000Z,10.88
2023-04-18T12:42:26.000Z,10.3
2023-04-18T12:47:25.000Z,10.51
2023-04-18T12:52:25.000Z,9.75
2023-04-18T12:57:25.000Z,9.75
2023-04-18T13:02:25.000Z,9.87
2023-04-18T13:07:25.000Z,9.91
2023-04-18T13:12:25.000Z,11.9
2023-04-18T13:17:25.000Z,10.72
2023-04-18T13:22:25.000Z,10.39
2023-04-18T13:27:25.000Z,10.27
2023-04-18T13:32:25.000Z,9.71
2023-04-18T13:37:25.000Z,9.66
2023-04-18T13:42:25.000Z,9.04
2023-04-18T13:47:26.000Z,10.1
2023-04-18T13:52:26.000Z,11.55
2023-04-18T13:57:26.000Z,11.61
2023-04-18T14:02:25.000Z,11.89
2023-04-18T14:07:26.000Z,9.58
2023-04-18T14:12:25.000Z,9.13
2023-04-18T14:17:25.000Z,9.4
2023-04-18T14:22:25.000Z,9.61
2023-04-18T14:27:26.000Z,9.85
2023-04-18T14:32:25.000Z,9.76
2023-04-18T14:37:25.000Z,9.24
2023-04-18T14:42:25.000Z,8.16
2023-04-18T14:47:25.000Z,8.05
2023-04-18T14:52:26.000Z,8.26
2023-04-18T14:57:25.000Z,8.68
2023-04-18T15:02:25.000Z,9.29
2023-04-18T15:07:25.000Z,9.82
2023-04-18T15:12:25.000Z,8.85
2023-04-18T15:17:25.000Z,9.1
2023-04-18T15:22:25.000Z,9.61
2023-04-18T15:27:25.000Z,8.55
2023-04-18T15:32:26.000Z,9.11
2023-04-18T15:37:26.000Z,9.94
2023-04-18T15:42:24.000Z,9.76
2023-04-18T15:47:25.000Z,10.38
2023-04-18T15:52:25.000Z,11.06
2023-04-18T15:57:25.000Z,11.4
2023-04-18T16:02:25.000Z,12.41
2023-04-18T16:07:25.000Z,10.41
2023-04-18T16:12:25.000Z,10.08
2023-04-18T16:17:25.000Z,10.41
2023-04-18T16:22:25.000Z,11.7
2023-04-18T16:27:25.000Z,13.67
2023-04-18T16:32:25.000Z,12.49
2023-04-18T16:37:25.000Z,12.12
2023-04-18T16:42:25.000Z,12.55
2023-04-18T16:47:26.000Z,13.64
2023-04-18T16:52:26.000Z,14.68
2023-04-18T16:57:25.000Z,17.36
2023-04-18T17:02:25.000Z,16.27
2023-04-18T17:07:26.000Z,18.02
2023-04-18T17:12:26.000Z,17.16
2023-04-18T17:17:26.000Z,15.56
2023-04-18T17:22:26.000Z,15.13
2023-04-18T17:27:25.000Z,15.13
2023-04-18T17:32:25.000Z,16.52
2023-04-18T17:37:25.000Z,16.93
2023-04-18T17:42:25.000Z,16.67
2023-04-18T17:47:25.000Z,17.28
2023-04-18T17:52:26.000Z,15.88
2023-04-18T17:57:25.000Z,16.73
2023-04-18T18:02:25.000Z,16.82
2023-04-18T18:07:25.000Z,16.22
2023-04-18T18:12:25.000Z,16.37
2023-04-18T18:17:25.000Z,17.29
2023-04-18T18:22:25.000Z,18.21
2023-04-18T18:27:26.000Z,18.07
2023-04-18T18:32:25.000Z,18.49
2023-04-18T18:37:25.000Z,19.15
2023-04-18T18:42:25.000Z,20.04
2023-04-18T18:47:25.000Z,19.77
2023-04-18T18:52:25.000Z,18.6
2023-04-18T18:57:25.000Z,20.15
2023-04-18T19:02:25.000Z,19.33
2023-04-18T19:07:25.000Z,18.37
2023-04-18T19:12:25.000Z,16.76
2023-04-18T19:17:25.000Z,16.36
2023-04-18T19:22:25.000Z,16.56
2023-04-18T19:27:25.000Z,18
2023-04-18T19:32:25.000Z,17.23
2023-04-18T19:37:25.000Z,17.29
2023-04-18T19:42:25.000Z,18.57
2023-04-18T19:47:25.000Z,17.05
2023-04-18T19:52:25.000Z,15.86
2023-04-18T19:57:25.000Z,17.01
2023-04-18T20:02:25.000Z,16.96
2023-04-18T20:07:25.000Z,16.47
2023-04-18T20:12:25.000Z,15.78
2023-04-18T20:17:25.000Z,14.53
2023-04-18T20:22:24.000Z,12.6
2023-04-18T20:27:25.000Z,12.53
2023-04-18T20:32:26.000Z,12.5
2023-04-18T20:37:25.000Z,12.06
2023-04-18T20:42:25.000Z,10.82
2023-04-18T20:47:25.000Z,9.95
2023-04-18T20:52:26.000Z,11.34
2023-04-18T20:57:25.000Z,12.32
2023-04-18T21:02:25.000Z,10.17
2023-04-18T21:07:26.000Z,10.25
2023-04-18T21:12:25.000Z,9.92
2023-04-18T21:17:25.000Z,10.12
2023-04-18T21:22:25.000Z,10.08
2023-04-18T21:27:25.000Z,10.44
2023-04-18T21:32:26.000Z,10.8
2023-04-18T21:37:26.000Z,10.57
2023-04-18T21:42:25.000Z,9.49
2023-04-18T21:47:25.000Z,9.32
2023-04-18T21:52:25.000Z,9
2023-04-18T21:57:25.000Z,9.11
2023-04-18T22:02:25.000Z,8.89
2023-04-18T22:07:25.000Z,8.9
2023-04-18T22:12:25.000Z,9.14
2023-04-18T22:17:25.000Z,9.12
2023-04-18T22:22:25.000Z,9.08
2023-04-18T22:27:25.000Z,8.94
2023-04-18T22:32:25.000Z,9.21
2023-04-18T22:37:25.000Z,9.74
2023-04-18T22:42:26.000Z,9.61
2023-04-18T22:47:24.000Z,9.22
2023-04-18T22:52:25.000Z,9.86
2023-04-18T22:57:26.000Z,10.05
2023-04-18T23:02:26.000Z,10.51
2023-04-18T23:07:25.000Z,11.58
2023-04-18T23:12:25.000Z,10.18
2023-04-18T23:17:25.000Z,10.15
2023-04-18T23:22:26.000Z,9.99
2023-04-18T23:27:24.000Z,9.87
2023-04-18T23:32:26.000Z,9.9
2023-04-18T23:37:25.000Z,9.94
2023-04-18T23:42:25.000Z,10.18
2023-04-18T23:47:25.000Z,10.29
2023-04-18T23:52:25.000Z,10.09
2023-04-18T23:57:25.000Z,10.27
